Woody Richerson — WDF9621 — position and weather

sailwx.info

Track history (hours):
 
Tides and Currents Weather Stations Pressure Air Temp Water Temp Dewpoint Dewpoint Depression Visibility Wind Speed Wind Dir Waves Ship Positions

Woody Richerson

Owner: Florida Marine, LLC, Mandeville, LA. More information available from US FCC via Universal Licensing System and Coast Guard Vessel Documentation Center.

Last reported at 2017-Sep-15 05:05 UTC. Time now 2017-Sep-23 05:42 UTC.
Position N 29°33' W 090°26'.
Warning: this ship's position is 8 days out of date.

Length 27 m; draft 2.9 m.

Type: Other ship. MMSI: 367507070.

Date/timePositionNaut miles runAvg speedWind from/ knotsBaromVisibWave heightAir tempDewpointWater temp
2017-Sep-15 05:05N 29°33' W 090°26'1 6.5
2017-Sep-15 05:00N 29°33' W 090°26'3 6.8
2017-Sep-15 04:30N 29°34' W 090°30'3 6.6
2017-Sep-15 04:00N 29°34' W 090°34'3 5.7
2017-Sep-15 03:30N 29°35' W 090°37'1 1.6
2017-Sep-15 03:00N 29°35' W 090°38'2 4.8
2017-Sep-15 02:30N 29°36' W 090°40'2 3.8
2017-Sep-15 02:00N 29°36' W 090°43'2 4.9
2017-Sep-15 01:30N 29°34' W 090°44'0 0.4
2017-Sep-15 01:00N 29°34' W 090°44'3 5.2
2017-Sep-15 00:30N 29°32' W 090°46'4 7.2
2017-Sep-15 00:00N 29°32' W 090°50'61 5.9
2017-Sep-14 13:34N 29°50' W 091°57'2 6.9
2017-Sep-14 13:17N 29°50' W 091°59'2 6.4
2017-Sep-14 12:57N 29°49' W 092°02'3 7.2
2017-Sep-14 12:30N 29°48' W 092°05'4 7.1
2017-Sep-14 12:00N 29°47' W 092°09'3 6.4
2017-Sep-14 11:30N 29°47' W 092°13'1 2.9
2017-Sep-14 11:00N 29°48' W 092°14'2 4.5
2017-Sep-14 10:30N 29°49' W 092°17'2 5.0
2017-Sep-14 10:00N 29°50' W 092°19'38 6.2
2017-Sep-14 03:55N 29°56' W 093°02'3 6.2
2017-Sep-14 03:29N 29°56' W 093°05'3 6.1
2017-Sep-14 03:00N 29°56' W 093°08'3 5.6
2017-Sep-14 02:30N 29°58' W 093°11'3 5.9
2017-Sep-14 02:00N 29°60' W 093°13'3 5.3
2017-Sep-14 01:30N 30°02' W 093°15'3 5.9
2017-Sep-14 01:00N 30°05' W 093°17'2 4.8
2017-Sep-14 00:30N 30°06' W 093°19'0 0.4
2017-Sep-14 00:00N 30°06' W 093°19'0 0.1
2017-Sep-13 23:30N 30°06' W 093°19'2 3.9
2017-Sep-13 23:00N 30°04' W 093°20'2 3.2
2017-Sep-13 22:30N 30°04' W 093°22'3 5.5
2017-Sep-13 22:00N 30°04' W 093°25'3 6.6
2017-Sep-13 21:30N 30°04' W 093°29'4 6.6
2017-Sep-13 20:57N 30°04' W 093°33'3 6.4
2017-Sep-13 20:30N 30°04' W 093°37'74 4.6
2017-Sep-13 04:34N 29°28' W 094°51'1 6.2
2017-Sep-13 04:29N 29°29' W 094°52'3 6.5
2017-Sep-13 04:00N 29°32' W 094°53'3 6.9
2017-Sep-13 03:30N 29°34' W 094°56'3 7.0
2017-Sep-13 03:00N 29°37' W 094°58'3 5.5
2017-Sep-13 02:30N 29°40' W 094°59'4 7.0
2017-Sep-13 02:00N 29°43' W 095°01'5 0.3
2017-Sep-12 11:09N 29°45' W 095°06'3 0.4
2017-Sep-12 04:39N 29°47' W 095°04'1 2.4
2017-Sep-12 04:23N 29°47' W 095°04'0 0.6
2017-Sep-12 03:48N 29°47' W 095°04'2 4.4
2017-Sep-12 03:26N 29°46' W 095°05'2 0.1
2017-Sep-11 01:59N 29°47' W 095°04'2 3.5
2017-Sep-11 01:29N 29°45' W 095°04'3 6.6
2017-Sep-11 00:59N 29°43' W 095°01'3 6.1
2017-Sep-11 00:30N 29°41' W 094°59'4 7.3
2017-Sep-11 00:00N 29°38' W 094°58'4 8.6
2017-Sep-10 23:30N 29°34' W 094°55'4 7.2
2017-Sep-10 23:00N 29°31' W 094°53'68 5.1
2017-Sep-10 09:51N 30°03' W 093°44'2 6.1
2017-Sep-10 09:30N 30°03' W 093°42'2 4.5
2017-Sep-10 09:00N 30°04' W 093°39'2 3.7
2017-Sep-10 08:30N 30°04' W 093°37'2 3.0
2017-Sep-10 07:58N 30°04' W 093°35'1 2.7
2017-Sep-10 07:30N 30°04' W 093°34'1 2.2
2017-Sep-10 07:00N 30°04' W 093°33'1 2.4
2017-Sep-10 06:30N 30°04' W 093°31'2 4.0
2017-Sep-10 06:00N 30°04' W 093°29'2 3.8
2017-Sep-10 05:29N 30°04' W 093°27'1 2.4
2017-Sep-10 05:00N 30°04' W 093°25'1 1.9
2017-Sep-10 04:30N 30°04' W 093°24'1 1.9
2017-Sep-10 04:00N 30°04' W 093°23'1 1.3
2017-Sep-10 03:30N 30°04' W 093°22'1 1.6
2017-Sep-10 03:00N 30°04' W 093°21'1 2.7
2017-Sep-10 02:30N 30°05' W 093°20'2 3.0
2017-Sep-10 02:00N 30°06' W 093°19'0 0.9
2017-Sep-10 01:30N 30°06' W 093°19'0 0.7
2017-Sep-10 01:00N 30°06' W 093°18'0 0.4
2017-Sep-10 00:30N 30°06' W 093°18'1 2.7
2017-Sep-10 00:00N 30°05' W 093°17'1 1.7
2017-Sep-09 23:30N 30°04' W 093°16'0 0.1
2017-Sep-09 23:00N 30°04' W 093°16'0 0.0
2017-Sep-09 22:30N 30°04' W 093°16'0 0.0
2017-Sep-09 22:00N 30°04' W 093°16'0 0.0
2017-Sep-09 21:30N 30°04' W 093°16'0 0.0
2017-Sep-09 21:00N 30°04' W 093°16'0 0.0
2017-Sep-09 20:30N 30°04' W 093°16'0 0.0
2017-Sep-09 20:00N 30°04' W 093°16'0 0.0
2017-Sep-09 19:30N 30°04' W 093°16'0 0.0
2017-Sep-09 19:00N 30°04' W 093°16'0 0.0
2017-Sep-09 18:30N 30°04' W 093°16'0 0.0
2017-Sep-09 18:00N 30°04' W 093°16'0 0.0
2017-Sep-09 17:30N 30°04' W 093°16'0 0.0
2017-Sep-09 17:00N 30°04' W 093°16'0 0.0
2017-Sep-09 16:30N 30°04' W 093°16'0 0.0
2017-Sep-09 16:00N 30°04' W 093°16'0 0.0
2017-Sep-09 15:30N 30°04' W 093°16'0 0.0
2017-Sep-09 15:00N 30°04' W 093°16'0 0.0
2017-Sep-09 14:29N 30°04' W 093°16'0 0.0
2017-Sep-09 13:58N 30°04' W 093°16'0 0.0
2017-Sep-09 13:03N 30°04' W 093°16'0 0.0
2017-Sep-09 13:00N 30°04' W 093°16'0 0.0
2017-Sep-09 12:30N 30°04' W 093°16'0 0.0
2017-Sep-09 12:00N 30°04' W 093°16'0 0.0
2017-Sep-09 11:29N 30°04' W 093°16'0 0.0
2017-Sep-09 10:57N 30°04' W 093°16'0 0.0
2017-Sep-09 10:26N 30°04' W 093°16'0 0.0
2017-Sep-09 09:58N 30°04' W 093°16'0 0.0
2017-Sep-09 09:30N 30°04' W 093°16'0 0.0
2017-Sep-09 08:58N 30°04' W 093°16'0 0.0
2017-Sep-09 08:30N 30°04' W 093°16'0 0.0
2017-Sep-09 07:59N 30°04' W 093°16'0 0.0
2017-Sep-09 07:30N 30°04' W 093°16'0 0.0
2017-Sep-09 07:00N 30°04' W 093°16'0 0.0
2017-Sep-09 06:30N 30°04' W 093°16'0 0.0
2017-Sep-09 04:29N 30°04' W 093°16'0 0.0
2017-Sep-09 03:50N 30°04' W 093°16'0 0.0
2017-Sep-09 03:10N 30°04' W 093°16'0 0.0
2017-Sep-09 03:00N 30°04' W 093°16'0 0.0
2017-Sep-09 02:22N 30°04' W 093°16'0 0.0
2017-Sep-09 02:00N 30°04' W 093°16'0 0.0
2017-Sep-09 01:21N 30°04' W 093°16'0 0.0
2017-Sep-09 01:00N 30°04' W 093°16'0 0.0
2017-Sep-09 00:30N 30°04' W 093°16'0 0.0
2017-Sep-09 00:00N 30°04' W 093°16'0 0.0
2017-Sep-08 23:30N 30°04' W 093°16'0 0.0
2017-Sep-08 23:00N 30°04' W 093°16'0 0.0
2017-Sep-08 22:30N 30°04' W 093°16'0 0.0
2017-Sep-08 22:00N 30°04' W 093°16'0 0.0
2017-Sep-08 21:30N 30°04' W 093°16'0 0.0
2017-Sep-08 21:00N 30°04' W 093°16'0 0.0
2017-Sep-08 20:30N 30°04' W 093°16'0 0.1
2017-Sep-08 20:00N 30°04' W 093°16'0 0.8
2017-Sep-08 19:30N 30°04' W 093°16'1 1.3
2017-Sep-08 19:00N 30°04' W 093°16'0 0.8
2017-Sep-08 18:30N 30°03' W 093°16'2 3.6
2017-Sep-08 18:00N 30°02' W 093°14'3 5.5
2017-Sep-08 17:30N 29°59' W 093°13'3 6.1
2017-Sep-08 17:00N 29°57' W 093°10'3 5.5
2017-Sep-08 16:30N 29°56' W 093°07'41 4.4
2017-Sep-08 07:10N 29°51' W 092°21'2 4.2
2017-Sep-08 06:36N 29°50' W 092°18'1 4.5
2017-Sep-08 06:27N 29°50' W 092°18'2 4.5
2017-Sep-08 06:00N 29°48' W 092°16'3 5.0
2017-Sep-08 05:30N 29°47' W 092°13'2 3.3
2017-Sep-08 05:00N 29°47' W 092°11'1 1.9
2017-Sep-08 04:30N 29°47' W 092°10'3 5.3
2017-Sep-08 03:59N 29°47' W 092°07'3 5.2
2017-Sep-08 03:27N 29°48' W 092°04'2 5.1
2017-Sep-08 03:00N 29°49' W 092°02'62 5.3
2017-Sep-07 15:18N 29°32' W 090°53'2 6.0
2017-Sep-07 14:59N 29°32' W 090°51'3 6.1
2017-Sep-07 14:30N 29°32' W 090°47'2 4.8
2017-Sep-07 14:00N 29°33' W 090°45'2 4.2
2017-Sep-07 13:30N 29°35' W 090°43'2 4.4
2017-Sep-07 13:00N 29°37' W 090°42'2 4.5
2017-Sep-07 12:30N 29°36' W 090°40'2 4.8
2017-Sep-07 12:00N 29°35' W 090°38'2 4.7
2017-Sep-07 11:30N 29°34' W 090°35'2 4.9
2017-Sep-07 11:00N 29°34' W 090°32'3 5.1
2017-Sep-07 10:30N 29°34' W 090°29'5 4.9
2017-Sep-07 09:32N 29°33' W 090°24'  
Track history (hours):
 
Tides and Currents Weather Stations Pressure Air Temp Water Temp Dewpoint Dewpoint Depression Visibility Wind Speed Wind Dir Waves Ship Positions

Woody Richerson

Owner: Florida Marine, LLC, Mandeville, LA. More information available from US FCC via Universal Licensing System and Coast Guard Vessel Documentation Center.

Last reported at 2017-Sep-15 05:05 UTC. Time now 2017-Sep-23 05:42 UTC.
Position N 29°33' W 090°26'.
Warning: this ship's position is 8 days out of date.

Length 27 m; draft 2.9 m.

Type: Other ship. MMSI: 367507070.

Date/timePositionNaut miles runAvg speedWind from/ knotsBaromVisibWave heightAir tempDewpointWater temp
2017-Sep-15 05:05N 29°33' W 090°26'1 6.5
2017-Sep-15 05:00N 29°33' W 090°26'3 6.8
2017-Sep-15 04:30N 29°34' W 090°30'3 6.6
2017-Sep-15 04:00N 29°34' W 090°34'3 5.7
2017-Sep-15 03:30N 29°35' W 090°37'1 1.6
2017-Sep-15 03:00N 29°35' W 090°38'2 4.8
2017-Sep-15 02:30N 29°36' W 090°40'2 3.8
2017-Sep-15 02:00N 29°36' W 090°43'2 4.9
2017-Sep-15 01:30N 29°34' W 090°44'0 0.4
2017-Sep-15 01:00N 29°34' W 090°44'3 5.2
2017-Sep-15 00:30N 29°32' W 090°46'4 7.2
2017-Sep-15 00:00N 29°32' W 090°50'61 5.9
2017-Sep-14 13:34N 29°50' W 091°57'2 6.9
2017-Sep-14 13:17N 29°50' W 091°59'2 6.4
2017-Sep-14 12:57N 29°49' W 092°02'3 7.2
2017-Sep-14 12:30N 29°48' W 092°05'4 7.1
2017-Sep-14 12:00N 29°47' W 092°09'3 6.4
2017-Sep-14 11:30N 29°47' W 092°13'1 2.9
2017-Sep-14 11:00N 29°48' W 092°14'2 4.5
2017-Sep-14 10:30N 29°49' W 092°17'2 5.0
2017-Sep-14 10:00N 29°50' W 092°19'38 6.2
2017-Sep-14 03:55N 29°56' W 093°02'3 6.2
2017-Sep-14 03:29N 29°56' W 093°05'3 6.1
2017-Sep-14 03:00N 29°56' W 093°08'3 5.6
2017-Sep-14 02:30N 29°58' W 093°11'3 5.9
2017-Sep-14 02:00N 29°60' W 093°13'3 5.3
2017-Sep-14 01:30N 30°02' W 093°15'3 5.9
2017-Sep-14 01:00N 30°05' W 093°17'2 4.8
2017-Sep-14 00:30N 30°06' W 093°19'0 0.4
2017-Sep-14 00:00N 30°06' W 093°19'0 0.1
2017-Sep-13 23:30N 30°06' W 093°19'2 3.9
2017-Sep-13 23:00N 30°04' W 093°20'2 3.2
2017-Sep-13 22:30N 30°04' W 093°22'3 5.5
2017-Sep-13 22:00N 30°04' W 093°25'3 6.6
2017-Sep-13 21:30N 30°04' W 093°29'4 6.6
2017-Sep-13 20:57N 30°04' W 093°33'3 6.4
2017-Sep-13 20:30N 30°04' W 093°37'74 4.6
2017-Sep-13 04:34N 29°28' W 094°51'1 6.2
2017-Sep-13 04:29N 29°29' W 094°52'3 6.5
2017-Sep-13 04:00N 29°32' W 094°53'3 6.9
2017-Sep-13 03:30N 29°34' W 094°56'3 7.0
2017-Sep-13 03:00N 29°37' W 094°58'3 5.5
2017-Sep-13 02:30N 29°40' W 094°59'4 7.0
2017-Sep-13 02:00N 29°43' W 095°01'5 0.3
2017-Sep-12 11:09N 29°45' W 095°06'3 0.4
2017-Sep-12 04:39N 29°47' W 095°04'1 2.4
2017-Sep-12 04:23N 29°47' W 095°04'0 0.6
2017-Sep-12 03:48N 29°47' W 095°04'2 4.4
2017-Sep-12 03:26N 29°46' W 095°05'2 0.1
2017-Sep-11 01:59N 29°47' W 095°04'2 3.5
2017-Sep-11 01:29N 29°45' W 095°04'3 6.6
2017-Sep-11 00:59N 29°43' W 095°01'3 6.1
2017-Sep-11 00:30N 29°41' W 094°59'4 7.3
2017-Sep-11 00:00N 29°38' W 094°58'4 8.6
2017-Sep-10 23:30N 29°34' W 094°55'4 7.2
2017-Sep-10 23:00N 29°31' W 094°53'68 5.1
2017-Sep-10 09:51N 30°03' W 093°44'2 6.1
2017-Sep-10 09:30N 30°03' W 093°42'2 4.5
2017-Sep-10 09:00N 30°04' W 093°39'2 3.7
2017-Sep-10 08:30N 30°04' W 093°37'2 3.0
2017-Sep-10 07:58N 30°04' W 093°35'1 2.7
2017-Sep-10 07:30N 30°04' W 093°34'1 2.2
2017-Sep-10 07:00N 30°04' W 093°33'1 2.4
2017-Sep-10 06:30N 30°04' W 093°31'2 4.0
2017-Sep-10 06:00N 30°04' W 093°29'2 3.8
2017-Sep-10 05:29N 30°04' W 093°27'1 2.4
2017-Sep-10 05:00N 30°04' W 093°25'1 1.9
2017-Sep-10 04:30N 30°04' W 093°24'1 1.9
2017-Sep-10 04:00N 30°04' W 093°23'1 1.3
2017-Sep-10 03:30N 30°04' W 093°22'1 1.6
2017-Sep-10 03:00N 30°04' W 093°21'1 2.7
2017-Sep-10 02:30N 30°05' W 093°20'2 3.0
2017-Sep-10 02:00N 30°06' W 093°19'0 0.9
2017-Sep-10 01:30N 30°06' W 093°19'0 0.7
2017-Sep-10 01:00N 30°06' W 093°18'0 0.4
2017-Sep-10 00:30N 30°06' W 093°18'1 2.7
2017-Sep-10 00:00N 30°05' W 093°17'1 1.7
2017-Sep-09 23:30N 30°04' W 093°16'0 0.1
2017-Sep-09 23:00N 30°04' W 093°16'0 0.0
2017-Sep-09 22:30N 30°04' W 093°16'0 0.0
2017-Sep-09 22:00N 30°04' W 093°16'0 0.0
2017-Sep-09 21:30N 30°04' W 093°16'0 0.0
2017-Sep-09 21:00N 30°04' W 093°16'0 0.0
2017-Sep-09 20:30N 30°04' W 093°16'0 0.0
2017-Sep-09 20:00N 30°04' W 093°16'0 0.0
2017-Sep-09 19:30N 30°04' W 093°16'0 0.0
2017-Sep-09 19:00N 30°04' W 093°16'0 0.0
2017-Sep-09 18:30N 30°04' W 093°16'0 0.0
2017-Sep-09 18:00N 30°04' W 093°16'0 0.0
2017-Sep-09 17:30N 30°04' W 093°16'0 0.0
2017-Sep-09 17:00N 30°04' W 093°16'0 0.0
2017-Sep-09 16:30N 30°04' W 093°16'0 0.0
2017-Sep-09 16:00N 30°04' W 093°16'0 0.0
2017-Sep-09 15:30N 30°04' W 093°16'0 0.0
2017-Sep-09 15:00N 30°04' W 093°16'0 0.0
2017-Sep-09 14:29N 30°04' W 093°16'0 0.0
2017-Sep-09 13:58N 30°04' W 093°16'0 0.0
2017-Sep-09 13:03N 30°04' W 093°16'0 0.0
2017-Sep-09 13:00N 30°04' W 093°16'0 0.0
2017-Sep-09 12:30N 30°04' W 093°16'0 0.0
2017-Sep-09 12:00N 30°04' W 093°16'0 0.0
2017-Sep-09 11:29N 30°04' W 093°16'0 0.0
2017-Sep-09 10:57N 30°04' W 093°16'0 0.0
2017-Sep-09 10:26N 30°04' W 093°16'0 0.0
2017-Sep-09 09:58N 30°04' W 093°16'0 0.0
2017-Sep-09 09:30N 30°04' W 093°16'0 0.0
2017-Sep-09 08:58N 30°04' W 093°16'0 0.0
2017-Sep-09 08:30N 30°04' W 093°16'0 0.0
2017-Sep-09 07:59N 30°04' W 093°16'0 0.0
2017-Sep-09 07:30N 30°04' W 093°16'0 0.0
2017-Sep-09 07:00N 30°04' W 093°16'0 0.0
2017-Sep-09 06:30N 30°04' W 093°16'0 0.0
2017-Sep-09 04:29N 30°04' W 093°16'0 0.0
2017-Sep-09 03:50N 30°04' W 093°16'0 0.0
2017-Sep-09 03:10N 30°04' W 093°16'0 0.0
2017-Sep-09 03:00N 30°04' W 093°16'0 0.0
2017-Sep-09 02:22N 30°04' W 093°16'0 0.0
2017-Sep-09 02:00N 30°04' W 093°16'0 0.0
2017-Sep-09 01:21N 30°04' W 093°16'0 0.0
2017-Sep-09 01:00N 30°04' W 093°16'0 0.0
2017-Sep-09 00:30N 30°04' W 093°16'0 0.0
2017-Sep-09 00:00N 30°04' W 093°16'0 0.0
2017-Sep-08 23:30N 30°04' W 093°16'0 0.0
2017-Sep-08 23:00N 30°04' W 093°16'0 0.0
2017-Sep-08 22:30N 30°04' W 093°16'0 0.0
2017-Sep-08 22:00N 30°04' W 093°16'0 0.0
2017-Sep-08 21:30N 30°04' W 093°16'0 0.0
2017-Sep-08 21:00N 30°04' W 093°16'0 0.0
2017-Sep-08 20:30N 30°04' W 093°16'0 0.1
2017-Sep-08 20:00N 30°04' W 093°16'0 0.8
2017-Sep-08 19:30N 30°04' W 093°16'1 1.3
2017-Sep-08 19:00N 30°04' W 093°16'0 0.8
2017-Sep-08 18:30N 30°03' W 093°16'2 3.6
2017-Sep-08 18:00N 30°02' W 093°14'3 5.5
2017-Sep-08 17:30N 29°59' W 093°13'3 6.1
2017-Sep-08 17:00N 29°57' W 093°10'3 5.5
2017-Sep-08 16:30N 29°56' W 093°07'41 4.4
2017-Sep-08 07:10N 29°51' W 092°21'2 4.2
2017-Sep-08 06:36N 29°50' W 092°18'1 4.5
2017-Sep-08 06:27N 29°50' W 092°18'2 4.5
2017-Sep-08 06:00N 29°48' W 092°16'3 5.0
2017-Sep-08 05:30N 29°47' W 092°13'2 3.3
2017-Sep-08 05:00N 29°47' W 092°11'1 1.9
2017-Sep-08 04:30N 29°47' W 092°10'3 5.3
2017-Sep-08 03:59N 29°47' W 092°07'3 5.2
2017-Sep-08 03:27N 29°48' W 092°04'2 5.1
2017-Sep-08 03:00N 29°49' W 092°02'62 5.3
2017-Sep-07 15:18N 29°32' W 090°53'2 6.0
2017-Sep-07 14:59N 29°32' W 090°51'3 6.1
2017-Sep-07 14:30N 29°32' W 090°47'2 4.8
2017-Sep-07 14:00N 29°33' W 090°45'2 4.2
2017-Sep-07 13:30N 29°35' W 090°43'2 4.4
2017-Sep-07 13:00N 29°37' W 090°42'2 4.5
2017-Sep-07 12:30N 29°36' W 090°40'2 4.8
2017-Sep-07 12:00N 29°35' W 090°38'2 4.7
2017-Sep-07 11:30N 29°34' W 090°35'2 4.9
2017-Sep-07 11:00N 29°34' W 090°32'3 5.1
2017-Sep-07 10:30N 29°34' W 090°29'5 4.9
2017-Sep-07 09:32N 29°33' W 090°24'  

Dump ship's entire track history